首页
METAR-TAF:

METAR-TAF

机场 :

東密德蘭機場

東米德蘭, 英格兰

纬度: 52-50N, 经度: 001-20W, 海拔: 94米

当前天气观测

该预报发布于19分钟前的06:20 UTC
风速8节,风向东转东北
温度 16°C
湿度 100%
气压 1018 hPa
能見度: 1800
少量云层高于200英尺
多云层高于400英尺
小雨, 轻雾

METAR: EGNX 250620Z 07008KT 1800 -RA BR FEW002 BKN004 16/16 Q1018

时间: 07:39 (06:39 UTC)

预报

该预报发布于1小时和47分钟前的04:52 UTC
预报有效从25日的 06点(UTC)到 26日的 06点(UTC)
风速6节,风向
能见度10公里或以上
散云层高于2000英尺
短暂存在
从 25日的 06点(UTC)到 25日的 15点(UTC)
能見度: 6000
多云层高于800英尺
几率 30% :
短暂存在
从 25日的 06点(UTC)到 25日的 08点(UTC)
能見度: 3000
多云层高于400英尺
多云层高于2500英尺, 积雨云.
雷暴, 大雨
短暂存在
从 25日的 15点(UTC)到 25日的 24点(UTC)
多云层高于1200英尺
几率 30% :
短暂存在
从 25日的 20点(UTC)到 25日的 24点(UTC)
能見度: 8000
多云层高于900英尺

TAF: EGNX 250452Z 2506/2606 01006KT 9999 SCT020 TEMPO 2506/2515 6000 RA BKN008 PROB30 TEMPO 2506/2508 3000 +TSRA BKN004 BKN025CB TEMPO 2515/2524 BKN012 PROB30 TEMPO 2520/2524 8000 BKN009

超过4000个机场的气象观测和天气预报(METAR&TAF报告)。

可查询的气象台以黄色和红色小点在地图上表示。

将鼠标移到小点上方,可查看气象台名称。

然后点击查看天气观测和预报。

如需切换地图:点击带黑十字的绿色按钮放大地图;点击带横线的绿色按钮缩小地图;或者点击绿色箭头查看邻近地区的地图。


METAR-TAF: